createdAt,value
2022-08-16T00:00:38.675Z,0.00
2022-08-16T00:01:37.612Z,0.00
2022-08-16T00:02:37.002Z,0.00
2022-08-16T00:03:37.768Z,0.00
2022-08-16T00:04:37.038Z,0.00
2022-08-16T00:05:36.988Z,0.00
2022-08-16T00:06:39.348Z,0.00
2022-08-16T00:07:36.972Z,0.00
2022-08-16T00:08:37.699Z,0.00
2022-08-16T00:09:36.933Z,0.00
2022-08-16T00:10:36.928Z,0.00
2022-08-16T00:11:36.896Z,0.00
2022-08-16T00:12:36.908Z,0.00
2022-08-16T00:13:41.896Z,0.00
2022-08-16T00:14:37.753Z,0.00
2022-08-16T00:15:52.085Z,0.00
2022-08-16T00:17:05.812Z,0.00
2022-08-16T00:17:56.826Z,0.00
2022-08-16T00:18:36.836Z,0.00
2022-08-16T00:19:41.142Z,0.00
2022-08-16T00:20:36.830Z,0.00
2022-08-16T00:21:36.804Z,0.00
2022-08-16T00:22:36.783Z,0.00
2022-08-16T00:23:46.064Z,0.00
2022-08-16T00:24:36.766Z,0.00
2022-08-16T00:26:35.816Z,0.00
2022-08-16T00:26:44.392Z,0.00
2022-08-16T00:27:36.733Z,0.00
2022-08-16T00:28:36.717Z,0.00
2022-08-16T00:29:36.719Z,0.00
2022-08-16T00:30:36.699Z,0.00
2022-08-16T00:31:58.728Z,0.00
2022-08-16T00:32:36.712Z,0.00
2022-08-16T00:33:36.682Z,0.00
2022-08-16T00:34:43.446Z,0.00
2022-08-16T00:35:36.651Z,0.00
2022-08-16T00:36:36.628Z,0.00
2022-08-16T00:37:57.163Z,0.00
2022-08-16T00:38:40.866Z,0.00
2022-08-16T00:39:36.647Z,0.00
2022-08-16T00:40:37.019Z,0.00
2022-08-16T00:41:38.142Z,0.00
2022-08-16T00:42:36.571Z,0.00
2022-08-16T00:43:42.769Z,0.00
2022-08-16T00:44:36.582Z,0.00
2022-08-16T00:45:36.679Z,0.00
2022-08-16T00:46:36.546Z,0.00
2022-08-16T00:47:36.912Z,0.00
2022-08-16T00:48:43.718Z,0.00
2022-08-16T00:49:39.176Z,0.00
2022-08-16T00:50:36.850Z,0.00
2022-08-16T00:51:36.495Z,0.00
2022-08-16T00:52:36.469Z,0.00
2022-08-16T00:53:36.454Z,0.00
2022-08-16T00:54:36.442Z,0.00
2022-08-16T00:55:37.774Z,0.00
2022-08-16T00:56:58.118Z,0.00
2022-08-16T00:57:59.051Z,0.00
2022-08-16T00:58:36.417Z,0.00
2022-08-16T00:59:36.393Z,0.00
2022-08-16T01:00:36.475Z,0.00
2022-08-16T01:01:36.395Z,0.00
2022-08-16T01:02:36.382Z,0.00
2022-08-16T01:03:36.348Z,0.00
2022-08-16T01:04:36.333Z,0.00
2022-08-16T01:05:36.344Z,0.00
2022-08-16T01:06:48.785Z,0.00
2022-08-16T01:07:51.647Z,0.00
2022-08-16T01:08:36.961Z,0.00
2022-08-16T01:09:37.411Z,0.00
2022-08-16T05:01:18.610Z,192.00
2022-08-16T05:02:41.165Z,193.00
2022-08-16T05:03:19.613Z,196.00
2022-08-16T05:04:20.206Z,198.00
2022-08-16T05:05:19.485Z,204.00
2022-08-16T05:06:19.476Z,203.00
2022-08-16T05:07:20.408Z,206.00
2022-08-16T05:08:27.967Z,211.00
2022-08-16T05:09:23.234Z,213.00
2022-08-16T05:10:19.785Z,217.00
2022-08-16T05:11:19.387Z,219.00
2022-08-16T05:12:30.284Z,222.00
2022-08-16T05:13:19.413Z,226.00
2022-08-16T05:14:19.992Z,227.00
2022-08-16T05:15:19.350Z,230.00
2022-08-16T05:16:21.434Z,234.00
2022-08-16T05:17:19.328Z,237.00
2022-08-16T05:18:26.907Z,241.00
2022-08-16T05:19:19.316Z,245.00
2022-08-16T05:20:39.049Z,247.00
2022-08-16T05:21:20.939Z,254.00
2022-08-16T05:22:19.299Z,256.00
2022-08-16T05:23:19.262Z,257.00
2022-08-16T05:24:24.691Z,259.00
2022-08-16T05:25:23.062Z,261.00
2022-08-16T05:26:20.274Z,265.00
2022-08-16T05:27:19.212Z,264.00
2022-08-16T05:28:19.203Z,268.00
2022-08-16T05:29:20.628Z,274.00
2022-08-16T05:30:34.915Z,275.00
2022-08-16T05:31:29.886Z,280.00
2022-08-16T05:32:32.403Z,282.00
2022-08-16T05:33:19.153Z,285.00
2022-08-16T05:34:19.994Z,287.00
2022-08-16T05:35:19.127Z,286.00
2022-08-16T05:36:20.862Z,288.00
2022-08-16T05:37:19.115Z,289.00
2022-08-16T05:38:32.717Z,293.00
2022-08-16T05:39:19.090Z,294.00
2022-08-16T05:40:19.109Z,296.00
2022-08-16T05:41:19.102Z,297.00
2022-08-16T05:42:19.701Z,301.00
2022-08-16T05:43:19.032Z,301.00
2022-08-16T05:44:23.927Z,304.00
2022-08-16T05:45:21.923Z,309.00
2022-08-16T05:46:29.528Z,311.00
2022-08-16T05:47:19.005Z,316.00
2022-08-16T05:48:18.980Z,315.00
2022-08-16T05:49:22.403Z,321.00
2022-08-16T05:50:19.550Z,324.00
2022-08-16T05:51:38.798Z,327.00
2022-08-16T05:52:20.893Z,328.00
2022-08-16T05:53:18.950Z,332.00
2022-08-16T05:54:24.713Z,335.00
2022-08-16T05:55:18.935Z,336.00
2022-08-16T05:56:19.476Z,335.00
2022-08-16T05:57:18.897Z,335.00
2022-08-16T05:58:28.968Z,335.00
2022-08-16T05:59:18.884Z,335.00
2022-08-16T06:00:22.423Z,339.00
2022-08-16T06:01:18.922Z,336.00
2022-08-16T06:02:18.860Z,343.00
2022-08-16T06:03:18.831Z,345.00
2022-08-16T06:04:36.264Z,346.00
2022-08-16T06:05:18.807Z,351.00
2022-08-16T06:06:28.029Z,351.00
2022-08-16T06:07:24.733Z,352.00
2022-08-16T06:08:32.348Z,352.00
2022-08-16T06:09:18.783Z,352.00
2022-08-16T06:10:31.881Z,354.00
2022-08-16T06:11:18.738Z,357.00
2022-08-16T06:12:27.363Z,360.00
2022-08-16T06:13:18.714Z,361.00
2022-08-16T06:14:18.717Z,362.00
2022-08-16T06:15:18.685Z,365.00
2022-08-16T06:16:18.879Z,365.00
2022-08-16T06:17:18.666Z,366.00
2022-08-16T06:18:18.657Z,371.00
2022-08-16T06:19:18.656Z,372.00
2022-08-16T06:20:23.641Z,374.00
2022-08-16T06:21:22.750Z,374.00
2022-08-16T06:22:37.672Z,376.00
2022-08-16T06:23:19.238Z,378.00
2022-08-16T06:24:55.094Z,382.00
2022-08-16T06:25:18.631Z,386.00
2022-08-16T06:26:18.660Z,384.00
2022-08-16T06:27:18.556Z,370.00
2022-08-16T06:28:35.703Z,376.00
2022-08-16T06:29:18.558Z,386.00
2022-08-16T06:30:19.708Z,386.00
2022-08-16T06:31:18.512Z,389.00
2022-08-16T06:32:28.105Z,387.00
2022-08-16T06:33:19.830Z,388.00
2022-08-16T06:34:55.828Z,391.00
2022-08-16T06:35:18.497Z,397.00
2022-08-16T06:36:21.016Z,403.00
2022-08-16T06:37:18.498Z,407.00
2022-08-16T06:38:32.546Z,412.00
2022-08-16T06:39:18.459Z,415.00
2022-08-16T06:40:18.536Z,415.00
2022-08-16T06:41:18.459Z,418.00
2022-08-16T06:42:19.047Z,416.00
2022-08-16T06:43:18.393Z,414.00
2022-08-16T06:44:20.962Z,417.00
2022-08-16T06:45:18.367Z,419.00
2022-08-16T06:46:18.359Z,396.00
2022-08-16T06:47:18.359Z,375.00
2022-08-16T06:48:18.784Z,399.00
2022-08-16T06:49:18.325Z,420.00
2022-08-16T06:50:22.276Z,429.00
2022-08-16T06:51:18.298Z,423.00
2022-08-16T06:52:59.744Z,426.00
2022-08-16T06:53:19.848Z,428.00
2022-08-16T06:54:18.284Z,422.00
2022-08-16T06:55:18.254Z,427.00
2022-08-16T06:56:23.375Z,432.00
2022-08-16T06:57:18.238Z,446.00
2022-08-16T06:58:22.692Z,455.00
2022-08-16T06:59:18.222Z,425.00
2022-08-16T07:00:24.055Z,432.00
2022-08-16T07:01:21.497Z,448.00
2022-08-16T07:02:33.087Z,448.00
2022-08-16T07:03:28.323Z,435.00
2022-08-16T07:04:32.042Z,437.00
2022-08-16T07:05:18.151Z,442.00
2022-08-16T07:06:18.152Z,439.00
2022-08-16T07:07:18.126Z,434.00
2022-08-16T07:08:18.124Z,438.00
2022-08-16T07:09:18.106Z,443.00
2022-08-16T07:10:18.094Z,446.00
2022-08-16T07:11:18.087Z,410.00
2022-08-16T07:12:18.089Z,424.00
2022-08-16T07:13:43.702Z,438.00
2022-08-16T07:14:26.486Z,437.00
2022-08-16T07:15:18.857Z,435.00
2022-08-16T07:16:20.500Z,437.00
2022-08-16T07:17:18.016Z,437.00
2022-08-16T07:18:18.007Z,438.00
2022-08-16T07:19:18.271Z,439.00
2022-08-16T07:20:35.701Z,440.00
2022-08-16T07:21:17.986Z,444.00
2022-08-16T07:22:36.514Z,449.00
2022-08-16T07:23:17.961Z,452.00
2022-08-16T07:24:30.313Z,453.00
2022-08-16T07:25:17.955Z,462.00
2022-08-16T07:26:25.206Z,463.00
2022-08-16T07:27:19.121Z,466.00
2022-08-16T07:28:20.972Z,461.00
2022-08-16T07:29:17.895Z,459.00
2022-08-16T07:30:38.168Z,458.00
2022-08-16T07:31:17.873Z,460.00
2022-08-16T07:32:17.882Z,462.00
2022-08-16T07:33:21.434Z,462.00
2022-08-16T07:34:17.871Z,462.00
2022-08-16T07:35:17.815Z,463.00
2022-08-16T07:36:21.756Z,464.00
2022-08-16T07:37:17.808Z,463.00
2022-08-16T07:38:19.841Z,464.00
2022-08-16T07:39:17.774Z,465.00
2022-08-16T07:40:17.856Z,468.00
2022-08-16T07:41:17.835Z,463.00
2022-08-16T07:42:28.464Z,463.00
2022-08-16T07:43:17.744Z,470.00
2022-08-16T07:44:17.746Z,468.00
2022-08-16T07:45:17.732Z,467.00
2022-08-16T07:46:38.500Z,470.00
2022-08-16T07:47:17.699Z,474.00
2022-08-16T07:48:17.685Z,476.00
2022-08-16T07:49:18.143Z,474.00
2022-08-16T07:50:56.150Z,475.00
2022-08-16T07:51:17.653Z,475.00
2022-08-16T07:52:20.134Z,475.00
2022-08-16T07:53:17.621Z,478.00
2022-08-16T07:54:21.184Z,483.00
2022-08-16T07:55:17.705Z,482.00
2022-08-16T07:56:17.602Z,489.00
2022-08-16T07:57:18.930Z,493.00
2022-08-16T07:58:18.459Z,494.00
2022-08-16T07:59:17.566Z,496.00
2022-08-16T08:00:18.713Z,497.00
2022-08-16T08:01:17.642Z,498.00
2022-08-16T08:02:20.046Z,498.00
2022-08-16T08:03:17.520Z,501.00
2022-08-16T08:04:17.560Z,500.00
2022-08-16T08:05:17.494Z,500.00
2022-08-16T08:06:17.512Z,501.00
2022-08-16T08:07:17.532Z,500.00
2022-08-16T08:08:51.178Z,500.00
2022-08-16T08:09:17.476Z,505.00
2022-08-16T08:10:29.159Z,506.00
2022-08-16T08:11:18.187Z,508.00
2022-08-16T08:12:32.303Z,511.00
2022-08-16T08:13:17.467Z,512.00
2022-08-16T08:14:29.920Z,509.00
2022-08-16T08:15:25.190Z,510.00
2022-08-16T08:16:18.977Z,512.00
2022-08-16T08:17:17.366Z,516.00
2022-08-16T08:18:30.278Z,515.00
2022-08-16T08:19:17.353Z,515.00
2022-08-16T08:20:20.780Z,517.00
2022-08-16T08:21:17.339Z,517.00
2022-08-16T08:22:18.929Z,522.00
2022-08-16T08:23:17.295Z,522.00
2022-08-16T08:24:17.310Z,526.00
2022-08-16T08:25:17.271Z,527.00
2022-08-16T08:26:17.856Z,529.00
2022-08-16T08:27:22.907Z,529.00
2022-08-16T08:28:17.287Z,530.00
2022-08-16T08:29:17.235Z,532.00
2022-08-16T08:30:51.779Z,533.00
2022-08-16T08:31:17.384Z,532.00
2022-08-16T08:32:50.446Z,534.00
2022-08-16T08:33:17.204Z,537.00
2022-08-16T08:34:17.175Z,541.00
2022-08-16T08:35:17.177Z,545.00
2022-08-16T08:36:21.912Z,544.00
2022-08-16T08:37:17.155Z,545.00
2022-08-16T08:38:17.154Z,549.00
2022-08-16T08:39:17.150Z,552.00
2022-08-16T08:40:18.594Z,556.00
2022-08-16T08:41:18.939Z,555.00
2022-08-16T08:42:17.092Z,563.00
2022-08-16T08:43:18.341Z,566.00
2022-08-16T08:44:28.835Z,565.00
2022-08-16T08:45:43.057Z,572.00
2022-08-16T08:46:18.077Z,581.00
2022-08-16T08:47:17.041Z,593.00
2022-08-16T08:48:33.259Z,604.00
2022-08-16T08:49:17.023Z,569.00
2022-08-16T08:50:32.133Z,626.00
2022-08-16T08:51:17.037Z,575.00
2022-08-16T08:52:35.164Z,610.00
2022-08-16T08:53:16.987Z,572.00
2022-08-16T08:54:18.698Z,534.00
2022-08-16T08:55:16.968Z,517.00
2022-08-16T08:56:22.954Z,581.00
2022-08-16T08:57:16.959Z,608.00
2022-08-16T08:58:16.935Z,622.00
2022-08-16T08:59:20.080Z,558.00
2022-08-16T09:00:16.925Z,672.00
2022-08-16T09:01:16.894Z,847.00
2022-08-16T09:02:19.569Z,871.00
2022-08-16T09:03:16.867Z,959.00
2022-08-16T09:04:17.473Z,947.00
2022-08-16T09:05:16.882Z,956.00
2022-08-16T09:06:18.585Z,826.00
2022-08-16T09:07:16.821Z,916.00
2022-08-16T09:08:17.786Z,858.00
2022-08-16T09:09:17.514Z,765.00
2022-08-16T09:10:20.700Z,882.00
2022-08-16T09:11:18.363Z,892.00
2022-08-16T09:12:30.189Z,775.00
2022-08-16T09:13:16.760Z,727.00
2022-08-16T09:14:24.786Z,735.00
2022-08-16T09:15:16.777Z,710.00
2022-08-16T09:16:57.460Z,700.00
2022-08-16T09:17:38.187Z,832.00
2022-08-16T09:18:26.294Z,840.00
2022-08-16T09:19:16.708Z,834.00
2022-08-16T09:20:16.968Z,826.00
2022-08-16T09:21:16.725Z,925.00
2022-08-16T09:22:19.778Z,1305.00
2022-08-16T09:23:18.432Z,1174.00
2022-08-16T09:24:46.901Z,977.00
2022-08-16T09:25:19.648Z,1055.00
2022-08-16T09:26:44.273Z,813.00
2022-08-16T09:27:16.663Z,998.00
2022-08-16T09:29:06.737Z,1233.00
2022-08-16T09:29:23.992Z,1392.00
2022-08-16T09:30:33.395Z,1296.00
2022-08-16T09:31:16.590Z,1101.00
2022-08-16T09:32:28.712Z,1155.00
2022-08-16T09:33:16.551Z,1071.00
2022-08-16T09:34:19.372Z,918.00
2022-08-16T09:35:16.513Z,830.00
2022-08-16T09:36:31.650Z,774.00
2022-08-16T09:37:18.101Z,785.00
2022-08-16T09:38:31.199Z,813.00
2022-08-16T09:39:16.715Z,857.00
2022-08-16T09:40:31.839Z,881.00
2022-08-16T09:41:16.483Z,853.00
2022-08-16T09:42:16.574Z,862.00
2022-08-16T09:43:46.360Z,839.00
2022-08-16T09:45:09.189Z,844.00
2022-08-16T09:45:18.060Z,829.00
2022-08-16T09:46:45.927Z,870.00
2022-08-16T09:47:16.440Z,946.00
2022-08-16T09:48:36.955Z,1060.00
2022-08-16T09:49:16.398Z,1080.00
2022-08-16T09:50:22.527Z,1076.00
2022-08-16T09:51:16.368Z,964.00
2022-08-16T09:52:16.347Z,983.00
2022-08-16T09:53:16.908Z,963.00
2022-08-16T09:54:16.852Z,990.00
2022-08-16T09:55:16.321Z,1241.00
2022-08-16T09:56:16.317Z,1337.00
2022-08-16T09:57:16.362Z,1217.00
2022-08-16T09:58:40.687Z,1237.00
2022-08-16T09:59:16.323Z,1285.00
2022-08-16T10:00:43.979Z,1430.00
2022-08-16T10:01:16.246Z,1390.00
2022-08-16T10:02:23.059Z,1475.00
2022-08-16T10:03:16.314Z,1353.00
2022-08-16T10:04:30.310Z,1341.00
2022-08-16T10:05:16.229Z,1192.00
2022-08-16T10:06:16.200Z,1039.00
2022-08-16T10:07:16.666Z,1092.00
2022-08-16T10:08:25.755Z,1127.00
2022-08-16T10:09:16.166Z,1145.00
2022-08-16T10:10:18.979Z,1182.00
2022-08-16T10:11:23.893Z,1058.00
2022-08-16T10:12:19.420Z,1147.00
2022-08-16T10:13:16.507Z,1040.00
2022-08-16T10:14:16.298Z,1097.00
2022-08-16T10:15:17.129Z,1394.00
2022-08-16T10:16:16.098Z,1641.00
2022-08-16T10:17:16.102Z,1968.00
2022-08-16T10:18:54.032Z,2212.00
2022-08-16T10:19:19.438Z,1948.00
2022-08-16T10:20:18.814Z,1456.00
2022-08-16T10:21:16.032Z,1221.00
2022-08-16T10:22:16.034Z,1148.00
2022-08-16T10:23:17.303Z,1045.00
2022-08-16T10:24:28.632Z,924.00
2022-08-16T10:27:19.389Z,1126.00
2022-08-16T10:27:47.309Z,1461.00
2022-08-16T10:28:28.049Z,1602.00
2022-08-16T10:28:42.003Z,1516.00
2022-08-16T10:29:59.933Z,1199.00
2022-08-16T10:30:40.577Z,1310.00
2022-08-16T10:31:45.364Z,1419.00
2022-08-16T10:32:40.580Z,1734.00
2022-08-16T10:33:40.618Z,1493.00
2022-08-16T10:34:40.527Z,1331.00
2022-08-16T10:35:46.700Z,1270.00
2022-08-16T10:36:40.524Z,1313.00
2022-08-16T10:37:40.520Z,1203.00
2022-08-16T10:38:40.487Z,1123.00
2022-08-16T10:39:42.140Z,1036.00
2022-08-16T10:40:40.485Z,1298.00
2022-08-16T10:41:40.494Z,1259.00
2022-08-16T10:42:40.915Z,1113.00
2022-08-16T10:43:40.450Z,1180.00
2022-08-16T10:44:40.413Z,1190.00
2022-08-16T10:45:40.415Z,1128.00
2022-08-16T10:46:41.987Z,1050.00
2022-08-16T10:47:40.409Z,1373.00
2022-08-16T10:48:40.371Z,1214.00
2022-08-16T10:49:40.463Z,1106.00
2022-08-16T10:50:40.392Z,1076.00
2022-08-16T10:52:01.093Z,1078.00
2022-08-16T10:53:40.325Z,1197.00
2022-08-16T10:55:45.134Z,1467.00
2022-08-16T10:56:55.539Z,1535.00
2022-08-16T10:57:40.310Z,1621.00
2022-08-16T10:58:40.318Z,1641.00
2022-08-16T10:59:51.915Z,1774.00
2022-08-16T11:00:40.253Z,1982.00
2022-08-16T11:01:43.666Z,2184.00
2022-08-16T11:02:59.863Z,2043.00
2022-08-16T11:03:47.643Z,1469.00
2022-08-16T11:06:40.443Z,1293.00
2022-08-16T11:07:51.682Z,1795.00
2022-08-16T11:08:45.310Z,1923.00
2022-08-16T11:09:43.961Z,2005.00
2022-08-16T11:12:13.676Z,1727.00
2022-08-16T11:12:40.180Z,1187.00
2022-08-16T11:15:11.392Z,1139.00
2022-08-16T11:15:40.102Z,986.00
2022-08-16T11:18:21.261Z,1646.00
2022-08-16T11:19:05.591Z,1730.00
2022-08-16T11:20:41.102Z,1535.00
2022-08-16T11:22:23.074Z,1499.00
2022-08-16T11:22:48.622Z,1349.00
2022-08-16T11:23:40.003Z,1413.00
2022-08-16T11:24:43.540Z,1288.00
2022-08-16T11:26:39.992Z,1430.00
2022-08-16T11:27:39.969Z,1747.00
2022-08-16T11:29:40.023Z,2069.00
2022-08-16T11:30:39.928Z,1880.00
2022-08-16T11:31:54.039Z,1413.00
2022-08-16T11:32:39.918Z,1349.00
2022-08-16T11:33:55.531Z,1237.00
2022-08-16T11:35:05.899Z,1081.00
2022-08-16T11:36:39.868Z,1109.00
2022-08-16T11:38:51.907Z,1403.00
2022-08-16T11:39:39.895Z,1617.00
2022-08-16T11:40:40.762Z,1475.00
2022-08-16T11:41:39.805Z,1529.00
2022-08-16T11:42:39.799Z,1523.00
2022-08-16T11:43:39.797Z,1787.00
2022-08-16T11:44:52.590Z,1681.00
2022-08-16T11:45:42.430Z,1632.00
2022-08-16T11:46:45.531Z,1625.00
2022-08-16T11:47:39.755Z,1864.00
2022-08-16T11:48:39.734Z,1989.00
2022-08-16T11:49:39.743Z,1908.00
2022-08-16T11:50:39.730Z,1993.00
2022-08-16T11:51:39.703Z,1975.00
2022-08-16T11:52:39.732Z,2255.00
2022-08-16T11:53:39.705Z,2256.00
2022-08-16T11:54:39.667Z,2102.00
2022-08-16T11:55:39.674Z,2173.00
2022-08-16T11:56:53.180Z,2166.00
2022-08-16T11:57:39.658Z,2366.00
2022-08-16T11:58:39.629Z,2441.00
2022-08-16T11:59:40.241Z,2314.00
2022-08-16T12:00:50.555Z,2128.00
2022-08-16T12:01:55.335Z,2419.00
2022-08-16T12:02:39.626Z,2259.00
2022-08-16T12:03:41.823Z,2022.00
2022-08-16T12:04:39.625Z,1869.00
2022-08-16T12:05:39.726Z,1786.00
2022-08-16T12:06:39.546Z,1856.00
2022-08-16T12:07:39.536Z,2284.00
2022-08-16T12:08:39.547Z,2234.00
2022-08-16T12:09:43.173Z,2047.00
2022-08-16T12:10:39.506Z,2285.00
2022-08-16T12:11:39.511Z,2303.00
2022-08-16T12:12:39.490Z,2056.00
2022-08-16T12:13:39.475Z,1930.00
2022-08-16T12:14:39.462Z,1840.00
2022-08-16T12:15:39.455Z,1887.00
2022-08-16T12:16:39.447Z,1859.00
2022-08-16T12:17:39.444Z,1924.00
2022-08-16T12:18:39.759Z,1879.00
2022-08-16T12:19:39.417Z,1865.00
2022-08-16T12:20:39.403Z,1864.00
2022-08-16T12:21:58.876Z,1954.00
2022-08-16T12:22:39.388Z,1933.00
2022-08-16T12:23:39.378Z,1976.00
2022-08-16T12:24:39.349Z,2004.00
2022-08-16T12:25:39.337Z,2009.00
2022-08-16T12:26:39.326Z,1992.00
2022-08-16T12:27:39.606Z,1936.00
2022-08-16T12:28:54.032Z,1971.00
2022-08-16T12:29:39.334Z,1972.00
2022-08-16T12:30:39.362Z,1947.00
2022-08-16T12:31:39.283Z,1961.00
2022-08-16T12:32:41.908Z,2070.00
2022-08-16T12:33:44.563Z,2014.00
2022-08-16T12:34:39.259Z,2053.00
2022-08-16T12:35:39.259Z,1991.00
2022-08-16T12:36:39.239Z,2054.00
2022-08-16T12:37:39.211Z,2132.00
2022-08-16T12:38:48.304Z,2148.00
2022-08-16T12:39:39.252Z,2069.00
2022-08-16T12:40:39.240Z,2093.00
2022-08-16T12:41:39.217Z,2155.00
2022-08-16T12:42:39.175Z,2182.00
2022-08-16T12:43:43.403Z,2287.00
2022-08-16T12:44:39.153Z,2234.00
2022-08-16T12:45:39.134Z,2293.00
2022-08-16T12:46:39.151Z,2481.00
2022-08-16T12:47:39.113Z,2611.00
2022-08-16T12:48:39.100Z,2484.00
2022-08-16T12:49:41.695Z,2571.00
2022-08-16T12:50:39.078Z,2314.00
2022-08-16T12:51:58.007Z,2405.00
2022-08-16T12:52:44.422Z,2380.00
2022-08-16T12:53:39.859Z,2379.00
2022-08-16T12:54:39.038Z,2348.00
2022-08-16T12:55:41.777Z,2420.00
2022-08-16T12:56:39.033Z,2458.00
2022-08-16T12:57:39.003Z,2468.00
2022-08-16T12:58:49.736Z,2512.00
2022-08-16T12:59:38.990Z,2621.00
2022-08-16T13:00:39.030Z,2594.00
2022-08-16T13:01:38.963Z,2702.00
2022-08-16T13:02:38.971Z,2545.00
2022-08-16T13:03:40.615Z,2563.00
2022-08-16T13:04:38.932Z,2595.00
2022-08-16T13:05:38.943Z,2477.00
2022-08-16T13:06:38.921Z,2463.00
2022-08-16T13:07:45.067Z,2201.00
2022-08-16T13:08:38.907Z,2367.00
2022-08-16T13:09:42.451Z,2395.00
2022-08-16T13:10:39.376Z,2394.00
2022-08-16T13:11:38.866Z,2352.00
2022-08-16T13:12:38.857Z,2360.00
2022-08-16T13:13:38.861Z,2440.00
2022-08-16T13:14:38.831Z,2459.00
2022-08-16T13:15:55.556Z,2758.00
2022-08-16T13:17:38.796Z,2895.00
2022-08-16T13:18:38.784Z,3096.00
2022-08-16T13:20:05.967Z,2891.00
2022-08-16T13:20:38.797Z,2876.00
2022-08-16T13:21:38.759Z,3055.00
2022-08-16T13:23:43.383Z,2709.00
2022-08-16T13:24:38.726Z,2678.00
2022-08-16T13:25:38.730Z,2665.00
2022-08-16T13:26:38.746Z,2569.00
2022-08-16T13:28:02.714Z,2773.00
2022-08-16T13:28:38.684Z,2848.00
2022-08-16T13:29:40.147Z,2869.00
2022-08-16T13:30:41.941Z,2658.00
2022-08-16T13:31:38.655Z,2571.00
2022-08-16T13:32:40.095Z,2625.00
2022-08-16T13:33:38.635Z,2557.00
2022-08-16T13:34:38.631Z,2528.00
2022-08-16T13:35:43.010Z,2533.00
2022-08-16T13:36:48.836Z,2592.00
2022-08-16T13:37:38.613Z,2526.00
2022-08-16T13:38:38.574Z,2563.00
2022-08-16T13:39:40.345Z,2599.00
2022-08-16T13:40:38.572Z,2529.00
2022-08-16T13:41:38.545Z,2535.00
2022-08-16T13:42:41.433Z,2556.00
2022-08-16T13:43:38.550Z,2653.00
2022-08-16T13:44:56.060Z,2577.00
2022-08-16T13:45:38.517Z,2659.00
2022-08-16T13:46:38.796Z,2665.00
2022-08-16T13:47:38.484Z,2718.00
2022-08-16T13:48:44.067Z,2908.00
2022-08-16T13:49:38.472Z,2845.00
2022-08-16T13:50:48.954Z,2671.00
2022-08-16T13:51:39.194Z,2860.00
2022-08-16T13:52:39.861Z,2955.00
2022-08-16T13:53:38.438Z,3147.00
2022-08-16T13:54:38.421Z,2981.00
2022-08-16T13:55:38.404Z,2878.00
2022-08-16T13:56:39.663Z,2789.00
2022-08-16T13:57:53.541Z,2823.00
2022-08-16T13:58:50.518Z,2801.00
2022-08-16T13:59:38.361Z,2778.00
2022-08-16T14:00:38.357Z,2797.00
2022-08-16T14:01:38.339Z,2995.00
2022-08-16T14:02:38.400Z,2937.00
2022-08-16T14:03:38.317Z,2784.00
2022-08-16T14:04:38.352Z,2918.00
2022-08-16T14:05:38.302Z,2960.00
2022-08-16T14:06:38.302Z,2812.00
2022-08-16T14:07:40.604Z,3155.00
2022-08-16T14:08:42.465Z,2924.00
2022-08-16T14:09:38.267Z,2963.00
2022-08-16T14:10:38.271Z,3114.00
2022-08-16T14:11:38.241Z,3480.00
2022-08-16T14:12:38.230Z,3467.00
2022-08-16T14:13:38.219Z,3444.00
2022-08-16T14:14:38.215Z,3254.00
2022-08-16T14:15:38.198Z,3152.00
2022-08-16T14:16:38.212Z,3175.00
2022-08-16T14:18:16.055Z,3061.00
2022-08-16T14:18:38.180Z,2759.00
2022-08-16T14:19:44.878Z,1478.00
2022-08-16T14:20:38.671Z,499.00
2022-08-16T14:21:39.361Z,3117.00
2022-08-16T14:22:39.761Z,3214.00
2022-08-16T14:23:38.138Z,3252.00
2022-08-16T14:24:38.109Z,3325.00
2022-08-16T14:25:38.093Z,3310.00
2022-08-16T14:26:38.122Z,3264.00
2022-08-16T14:27:43.889Z,3275.00
2022-08-16T14:28:38.078Z,3291.00
2022-08-16T14:29:38.429Z,3370.00
2022-08-16T14:30:38.055Z,3371.00
2022-08-16T14:31:39.712Z,3396.00
2022-08-16T14:32:38.051Z,3434.00
2022-08-16T14:33:38.044Z,3439.00
2022-08-16T14:34:38.024Z,3487.00
2022-08-16T14:35:50.077Z,3510.00
2022-08-16T14:36:37.999Z,3541.00
2022-08-16T14:37:37.987Z,3519.00
2022-08-16T14:38:39.534Z,3578.00
2022-08-16T14:39:39.401Z,3954.00
2022-08-16T14:40:37.947Z,4058.00
2022-08-16T14:41:40.926Z,4109.00
2022-08-16T14:42:37.926Z,4265.00
2022-08-16T14:43:37.918Z,4647.00
2022-08-16T14:44:37.945Z,4317.00
2022-08-16T14:45:37.908Z,4409.00
2022-08-16T14:46:37.882Z,4400.00
2022-08-16T14:47:37.873Z,4402.00
2022-08-16T14:48:37.871Z,4557.00
2022-08-16T14:49:37.912Z,4656.00
2022-08-16T14:50:37.838Z,4676.00
2022-08-16T14:51:37.859Z,4749.00
2022-08-16T14:52:54.691Z,4686.00
2022-08-16T14:53:37.823Z,5045.00
2022-08-16T14:54:37.800Z,5516.00
2022-08-16T14:55:37.791Z,5475.00
2022-08-16T14:56:38.460Z,5463.00
2022-08-16T14:57:37.771Z,4412.00
2022-08-16T14:58:38.090Z,3281.00
2022-08-16T14:59:43.751Z,5808.00
2022-08-16T15:00:37.754Z,22603.00
2022-08-16T15:01:52.122Z,30313.00
2022-08-16T15:02:37.753Z,27780.00
2022-08-16T15:03:37.835Z,24995.00
2022-08-16T15:04:39.668Z,32446.00
2022-08-16T15:05:37.697Z,28660.00
2022-08-16T15:06:37.713Z,30551.00
2022-08-16T15:07:40.208Z,38729.00
2022-08-16T15:08:40.428Z,31913.00
2022-08-16T15:09:44.284Z,25382.00
2022-08-16T15:10:39.015Z,30354.00
2022-08-16T15:11:41.944Z,31570.00
2022-08-16T15:12:37.708Z,28965.00
2022-08-16T15:13:37.630Z,32922.00
2022-08-16T15:14:37.601Z,29587.00
2022-08-16T15:15:37.833Z,28200.00
2022-08-16T15:16:37.593Z,29336.00
2022-08-16T15:17:37.614Z,27201.00
2022-08-16T15:18:39.310Z,23187.00
2022-08-16T15:19:37.551Z,20245.00
2022-08-16T15:20:37.566Z,29815.00
2022-08-16T15:21:37.547Z,33449.00
2022-08-16T15:22:37.526Z,31941.00
2022-08-16T15:23:40.399Z,25541.00
2022-08-16T15:24:37.920Z,23870.00
2022-08-16T15:25:41.302Z,26268.00
2022-08-16T15:26:45.087Z,30842.00
2022-08-16T15:27:37.484Z,23515.00
2022-08-16T15:28:38.083Z,24618.00
2022-08-16T15:29:37.465Z,29801.00
2022-08-16T15:30:59.939Z,29137.00
2022-08-16T15:31:37.444Z,27473.00
2022-08-16T15:32:37.428Z,20446.00
2022-08-16T15:33:38.939Z,22834.00
2022-08-16T15:34:37.416Z,34070.00
2022-08-16T15:35:38.731Z,38792.00
2022-08-16T15:36:37.411Z,30221.00
2022-08-16T15:37:42.700Z,22682.00
2022-08-16T15:39:03.765Z,21323.00
2022-08-16T15:39:39.707Z,25750.00
2022-08-16T15:40:37.475Z,27584.00
2022-08-16T15:41:37.340Z,27295.00
2022-08-16T15:42:37.350Z,26054.00
2022-08-16T15:43:39.673Z,20804.00
2022-08-16T15:44:51.907Z,20476.00
2022-08-16T15:45:37.309Z,20396.00
2022-08-16T15:46:56.292Z,22440.00
2022-08-16T15:47:37.284Z,26506.00
2022-08-16T15:48:40.374Z,21060.00
2022-08-16T15:49:46.405Z,20148.00
2022-08-16T15:50:37.266Z,23292.00
2022-08-16T15:51:37.233Z,18988.00
2022-08-16T15:52:37.256Z,10079.00
2022-08-16T15:53:37.712Z,4402.00
2022-08-16T15:54:37.233Z,2899.00
2022-08-16T15:55:37.216Z,2316.00
2022-08-16T15:56:37.197Z,2038.00
2022-08-16T15:57:41.306Z,1893.00
2022-08-16T15:58:38.674Z,1792.00
2022-08-16T15:59:48.486Z,1753.00
2022-08-16T16:00:37.212Z,1594.00
2022-08-16T16:01:37.146Z,1550.00
2022-08-16T16:02:37.134Z,1489.00
2022-08-16T16:03:37.966Z,1415.00
2022-08-16T16:04:37.130Z,1425.00
2022-08-16T16:05:37.124Z,1368.00
2022-08-16T16:06:37.102Z,1307.00
2022-08-16T16:07:37.087Z,1256.00
2022-08-16T16:08:38.931Z,1194.00
2022-08-16T16:09:37.422Z,1103.00
2022-08-16T16:10:37.054Z,1010.00
2022-08-16T16:11:37.050Z,962.00
2022-08-16T16:12:51.008Z,932.00
2022-08-16T16:13:37.022Z,917.00
2022-08-16T16:14:37.013Z,899.00
2022-08-16T16:15:37.095Z,880.00
2022-08-16T16:16:36.992Z,861.00
2022-08-16T16:17:36.982Z,855.00
2022-08-16T16:18:36.974Z,848.00
2022-08-16T16:19:36.962Z,834.00
2022-08-16T16:20:37.345Z,834.00
2022-08-16T16:21:36.976Z,844.00
2022-08-16T16:22:36.927Z,852.00
2022-08-16T16:23:44.823Z,863.00
2022-08-16T16:24:36.908Z,873.00